Time;durP1;ratioP1;P1;durP2;ratioP2;P2;SDS_P1;SDS_P2;PMS_P1;PMS_P2;Temp;Humidity;BMP_temperature;BMP_pressure;BME280_temperature;BME280_humidity;BME280_pressure;Samples;Min_cycle;Max_cycle;Signal;HPM_P1;HPM_P2
2024/03/31 00:01:09;;;;;;;9.23;3.70;;;13.30;87.50;;;;;;4972457;28;20023;-79
2024/03/31 00:03:35;;;;;;;7.50;3.20;;;13.30;87.50;;;;;;4974070;28;20030;-78
2024/03/31 00:06:01;;;;;;;9.48;4.00;;;13.30;87.50;;;;;;4972812;28;20139;-79
2024/03/31 00:08:27;;;;;;;8.10;4.13;;;13.30;87.60;;;;;;4973682;28;20031;-78
2024/03/31 00:11:03;;;;;;;7.93;3.88;;;13.30;87.60;;;;;;4972415;28;20023;-78
2024/03/31 00:13:29;;;;;;;8.75;4.05;;;13.30;87.60;;;;;;4974115;28;20101;-79
2024/03/31 00:15:55;;;;;;;8.60;3.78;;;13.30;87.60;;;;;;4972675;28;20453;-78
2024/03/31 00:18:21;;;;;;;7.90;3.63;;;13.30;87.50;;;;;;4956377;28;20038;-79
2024/03/31 00:20:52;;;;;;;8.40;3.97;;;13.30;87.60;;;;;;4972371;28;20098;-79
2024/03/31 00:23:17;;;;;;;8.23;4.03;;;13.30;87.60;;;;;;4973470;28;20027;-79
2024/03/31 00:25:43;;;;;;;7.15;4.20;;;13.30;87.60;;;;;;4972557;28;20395;-79
2024/03/31 00:28:08;;;;;;;8.18;3.80;;;13.40;87.70;;;;;;4973726;28;20098;-79
2024/03/31 00:30:34;;;;;;;8.45;3.78;;;13.40;87.70;;;;;;4973434;28;20039;-78
2024/03/31 00:32:59;;;;;;;8.32;4.22;;;13.30;87.60;;;;;;4973711;28;20038;-79
2024/03/31 00:35:25;;;;;;;8.68;3.80;;;13.30;87.60;;;;;;4973873;28;20499;-79
2024/03/31 00:37:51;;;;;;;8.23;3.92;;;13.30;87.60;;;;;;4973591;28;20033;-79
2024/03/31 00:40:16;;;;;;;7.45;4.10;;;13.30;87.60;;;;;;4973465;28;20487;-79
2024/03/31 00:42:42;;;;;;;7.45;3.90;;;13.30;87.60;;;;;;4972306;28;20674;-80
2024/03/31 00:45:07;;;;;;;8.93;4.40;;;13.30;87.60;;;;;;4971935;28;20066;-79
2024/03/31 00:47:33;;;;;;;7.78;3.80;;;13.30;87.60;;;;;;4973312;28;20035;-79
2024/03/31 00:49:58;;;;;;;8.18;4.05;;;13.10;87.50;;;;;;4972023;28;20033;-79
2024/03/31 00:52:24;;;;;;;9.13;4.22;;;13.30;87.60;;;;;;4971957;28;20027;-79
2024/03/31 00:54:49;;;;;;;7.93;4.30;;;13.30;87.60;;;;;;4975012;28;20542;-79
2024/03/31 00:57:15;;;;;;;8.57;4.40;;;13.30;87.60;;;;;;4975821;28;20443;-79
2024/03/31 00:59:40;;;;;;;7.85;4.22;;;13.30;87.60;;;;;;4975517;28;20026;-79
2024/03/31 01:02:07;;;;;;;8.30;4.70;;;13.30;88.10;;;;;;4976910;28;20026;-79
2024/03/31 01:04:33;;;;;;;7.45;4.15;;;13.10;87.50;;;;;;4975599;28;20045;-78
2024/03/31 01:06:58;;;;;;;9.07;4.32;;;13.30;87.60;;;;;;4975698;28;20519;-79
2024/03/31 01:09:24;;;;;;;9.32;4.00;;;13.40;87.70;;;;;;4975278;28;20487;-78
2024/03/31 01:11:51;;;;;;;8.90;4.63;;;13.30;87.60;;;;;;4975636;28;20019;-79
2024/03/31 01:14:17;;;;;;;7.80;4.13;;;13.30;87.60;;;;;;4968743;28;20026;-79
2024/03/31 01:16:43;;;;;;;8.20;4.28;;;13.30;87.60;;;;;;4976833;28;20042;-79
2024/03/31 01:19:10;;;;;;;8.98;4.80;;;13.30;87.60;;;;;;4976975;28;20027;-78
2024/03/31 01:21:37;;;;;;;7.68;4.28;;;13.30;87.60;;;;;;4974956;28;20373;-79
2024/03/31 01:24:03;;;;;;;8.32;4.78;;;13.30;87.60;;;;;;4976826;28;20038;-80
2024/03/31 01:26:29;;;;;;;9.00;4.85;;;13.30;87.60;;;;;;4976272;28;20037;-79
2024/03/31 01:28:55;;;;;;;8.23;4.80;;;13.20;87.60;;;;;;4959443;28;20027;-78
2024/03/31 01:31:21;;;;;;;8.40;4.30;;;13.30;87.60;;;;;;4976364;28;20026;-78
2024/03/31 01:33:48;;;;;;;7.28;4.40;;;13.20;87.60;;;;;;4975445;28;20074;-79
2024/03/31 01:36:13;;;;;;;8.43;4.80;;;13.30;87.60;;;;;;4991443;28;21265;-78
2024/03/31 01:38:39;;;;;;;7.75;4.45;;;13.30;87.60;;;;;;4975101;28;20022;-79
2024/03/31 01:41:04;;;;;;;8.70;5.35;;;13.30;87.70;;;;;;4976265;28;20077;-79
2024/03/31 01:43:30;;;;;;;8.50;4.53;;;13.30;87.60;;;;;;4976359;28;20019;-79
2024/03/31 01:45:55;;;;;;;7.93;4.75;;;13.30;87.60;;;;;;4974904;28;20058;-79
2024/03/31 01:48:21;;;;;;;8.45;4.50;;;13.40;87.70;;;;;;4975674;28;20022;-79
2024/03/31 01:50:47;;;;;;;7.80;4.40;;;13.30;87.60;;;;;;4975804;28;20118;-79
2024/03/31 01:53:12;;;;;;;7.90;4.63;;;13.30;87.60;;;;;;4974624;28;20023;-79
2024/03/31 01:55:38;;;;;;;9.57;4.97;;;13.30;87.60;;;;;;4975605;28;20046;-79
2024/03/31 01:58:04;;;;;;;7.55;4.32;;;13.10;87.50;;;;;;4976209;28;20027;-79
2024/03/31 02:00:29;;;;;;;7.50;4.45;;;13.30;87.60;;;;;;4974713;28;20037;-78
2024/03/31 02:02:55;;;;;;;9.30;5.25;;;13.30;87.60;;;;;;4974511;28;20035;-79
2024/03/31 02:05:21;;;;;;;8.05;5.20;;;13.30;87.60;;;;;;4975203;28;20594;-79
2024/03/31 02:07:46;;;;;;;8.63;5.22;;;13.20;87.60;;;;;;4976204;28;20031;-79
2024/03/31 02:10:12;;;;;;;7.90;4.95;;;13.40;87.70;;;;;;4974712;28;20030;-77
2024/03/31 02:12:38;;;;;;;8.65;4.55;;;13.40;87.70;;;;;;4974754;28;20091;-79
2024/03/31 02:15:04;;;;;;;9.70;5.20;;;13.20;87.60;;;;;;4975685;28;20023;-78
2024/03/31 02:17:30;;;;;;;9.05;4.90;;;13.30;87.60;;;;;;4974766;28;20031;-79
2024/03/31 02:19:55;;;;;;;8.60;5.25;;;13.30;87.60;;;;;;4974180;28;20042;-79
2024/03/31 02:22:21;;;;;;;9.02;5.03;;;13.20;87.60;;;;;;4975736;28;20110;-79
2024/03/31 02:24:46;;;;;;;7.38;5.00;;;13.30;87.70;;;;;;4975821;28;20428;-79
2024/03/31 02:27:12;;;;;;;8.82;5.40;;;13.30;87.60;;;;;;4975978;28;20058;-79
2024/03/31 02:29:41;;;;;;;9.27;4.75;;;13.30;87.70;;;;;;4975700;28;20415;-79
2024/03/31 02:32:07;;;;;;;8.02;5.15;;;13.30;87.60;;;;;;4975874;28;20057;-79
2024/03/31 02:34:33;;;;;;;8.70;5.38;;;13.30;87.70;;;;;;4974041;28;20027;-79
2024/03/31 02:36:59;;;;;;;9.13;5.20;;;13.30;87.80;;;;;;4975392;28;20521;-79
2024/03/31 02:39:24;;;;;;;8.70;4.88;;;13.30;87.60;;;;;;4973811;28;20062;-78
2024/03/31 02:41:52;;;;;;;8.30;4.75;;;13.20;87.60;;;;;;4975364;28;20023;-80
2024/03/31 02:44:18;;;;;;;9.20;6.03;;;13.30;87.70;;;;;;4975239;28;20476;-79
2024/03/31 02:46:45;;;;;;;8.15;5.25;;;13.30;87.60;;;;;;4973775;28;20054;-79
2024/03/31 02:49:11;;;;;;;8.48;5.10;;;13.30;87.60;;;;;;4974921;28;20062;-78
2024/03/31 02:51:36;;;;;;;7.95;4.88;;;13.30;87.70;;;;;;4973643;28;20030;-79
2024/03/31 02:54:02;;;;;;;9.38;5.40;;;13.20;87.60;;;;;;4974567;28;20122;-77
2024/03/31 02:56:27;;;;;;;8.55;5.22;;;13.20;87.60;;;;;;4975103;28;20030;-79
2024/03/31 02:58:53;;;;;;;8.60;5.55;;;13.40;87.70;;;;;;4958077;28;20035;-78
2024/03/31 03:01:19;;;;;;;8.65;5.30;;;13.20;87.60;;;;;;4975354;28;20023;-79
2024/03/31 03:03:45;;;;;;;8.70;5.47;;;13.30;87.60;;;;;;4975619;28;20026;-79
2024/03/31 03:06:11;;;;;;;9.25;5.70;;;13.20;87.60;;;;;;4973814;28;20023;-79
2024/03/31 03:08:38;;;;;;;7.88;5.20;;;13.30;87.70;;;;;;4973447;28;20027;-79
2024/03/31 03:11:04;;;;;;;8.80;5.13;;;13.30;87.60;;;;;;4975101;28;20026;-79
2024/03/31 03:13:29;;;;;;;8.82;5.57;;;13.30;87.60;;;;;;4975381;28;20026;-79
2024/03/31 03:15:55;;;;;;;9.40;5.80;;;13.30;87.70;;;;;;4973856;28;20098;-79
2024/03/31 03:18:21;;;;;;;8.55;5.82;;;13.30;87.70;;;;;;4974744;28;20043;-79
2024/03/31 03:20:47;;;;;;;7.93;5.22;;;13.30;87.60;;;;;;4973351;28;20555;-79
2024/03/31 03:23:12;;;;;;;9.93;6.28;;;13.30;87.70;;;;;;4989417;28;20122;-79
2024/03/31 03:25:38;;;;;;;8.68;6.20;;;13.30;87.70;;;;;;4973437;28;20023;-79
2024/03/31 03:28:05;;;;;;;9.80;5.82;;;13.30;87.70;;;;;;4974437;28;20495;-78
2024/03/31 03:30:30;;;;;;;9.55;6.30;;;13.30;87.70;;;;;;4973019;28;20042;-79
2024/03/31 03:32:56;;;;;;;9.65;5.60;;;13.20;87.60;;;;;;4974302;28;20042;-79
2024/03/31 03:35:23;;;;;;;10.57;6.03;;;13.30;87.70;;;;;;4973644;28;20058;-79
2024/03/31 03:37:48;;;;;;;9.43;5.93;;;13.30;87.70;;;;;;4973519;28;20147;-78
2024/03/31 03:40:14;;;;;;;8.02;5.22;;;13.30;87.70;;;;;;4973314;28;20474;-79
2024/03/31 03:42:40;;;;;;;8.80;5.85;;;13.30;87.70;;;;;;4974886;28;20027;-79
2024/03/31 03:45:07;;;;;;;9.13;5.60;;;13.30;87.70;;;;;;4974773;28;20439;-78
2024/03/31 03:47:33;;;;;;;9.05;6.00;;;13.30;87.70;;;;;;4974699;28;20058;-79
2024/03/31 03:49:58;;;;;;;9.27;6.22;;;13.10;87.60;;;;;;4972588;28;20030;-79
2024/03/31 03:52:24;;;;;;;9.07;6.13;;;13.20;87.60;;;;;;4973194;28;20514;-79
2024/03/31 03:54:50;;;;;;;8.65;6.03;;;13.30;87.70;;;;;;4974144;28;20089;-79
2024/03/31 03:57:15;;;;;;;9.02;5.75;;;13.30;87.70;;;;;;4973001;28;20043;-79
2024/03/31 03:59:41;;;;;;;8.77;5.60;;;13.30;87.70;;;;;;4972900;28;20053;-79
2024/03/31 04:02:07;;;;;;;8.32;6.13;;;13.30;87.70;;;;;;4956716;28;20030;-78
2024/03/31 04:04:33;;;;;;;8.07;5.80;;;13.30;87.70;;;;;;4972832;28;20023;-79
2024/03/31 04:06:59;;;;;;;9.77;6.50;;;13.20;87.70;;;;;;4972932;28;20385;-79
2024/03/31 04:09:25;;;;;;;8.93;6.65;;;13.30;87.70;;;;;;4974241;28;20035;-78
2024/03/31 04:11:50;;;;;;;10.05;6.88;;;13.30;87.70;;;;;;4972701;28;20396;-78
2024/03/31 04:14:16;;;;;;;10.07;6.30;;;13.30;87.70;;;;;;4974140;28;20030;-79
2024/03/31 04:16:41;;;;;;;8.30;5.90;;;13.30;87.70;;;;;;4956550;28;20066;-80
2024/03/31 04:19:07;;;;;;;9.05;5.90;;;13.20;87.70;;;;;;4974224;28;20026;-81
2024/03/31 04:21:32;;;;;;;9.60;6.25;;;13.30;87.70;;;;;;4973721;28;20480;-80
2024/03/31 04:23:58;;;;;;;9.30;6.07;;;13.30;87.70;;;;;;4973755;28;20029;-79
2024/03/31 04:26:26;;;;;;;9.52;6.45;;;13.20;87.70;;;;;;4973683;28;20046;-80
2024/03/31 04:28:52;;;;;;;8.45;5.80;;;13.20;87.60;;;;;;4976227;28;20053;-79
2024/03/31 04:31:18;;;;;;;9.55;6.43;;;13.30;87.70;;;;;;4976081;28;20065;-80
2024/03/31 04:33:44;;;;;;;8.70;6.05;;;13.30;87.70;;;;;;4977479;28;20030;-79
2024/03/31 04:36:13;;;;;;;9.50;6.32;;;13.10;87.60;;;;;;4977804;28;20039;-79
2024/03/31 04:38:39;;;;;;;9.35;6.22;;;13.20;87.70;;;;;;4976212;28;20503;-79
2024/03/31 04:41:06;;;;;;;9.82;6.45;;;13.10;87.60;;;;;;4975920;28;20027;-79
2024/03/31 04:43:32;;;;;;;9.60;6.10;;;13.10;87.60;;;;;;4975988;28;20491;-80
2024/03/31 04:46:03;;;;;;;9.20;6.57;;;13.30;87.80;;;;;;4977322;28;20037;-79
2024/03/31 04:48:37;;;;;;;9.60;6.40;;;13.20;87.70;;;;;;4976397;28;20022;-80
2024/03/31 04:51:07;;;;;;;10.07;6.75;;;13.30;87.80;;;;;;4977169;28;20479;-78
2024/03/31 04:53:37;;;;;;;10.38;6.63;;;13.30;87.70;;;;;;4977134;28;20031;-79
2024/03/31 04:56:04;;;;;;;9.98;6.40;;;13.30;87.80;;;;;;4977194;28;20023;-79
2024/03/31 04:58:30;;;;;;;10.55;6.90;;;13.30;87.80;;;;;;4976136;28;20027;-79
2024/03/31 05:00:55;;;;;;;9.95;6.82;;;13.30;87.80;;;;;;4977100;28;20031;-79
2024/03/31 05:03:26;;;;;;;8.70;6.47;;;13.30;87.80;;;;;;4975417;28;20122;-78
2024/03/31 05:05:51;;;;;;;9.70;6.32;;;13.30;87.70;;;;;;4976989;28;20023;-80
2024/03/31 05:08:17;;;;;;;9.00;6.90;;;13.30;87.70;;;;;;4975557;28;20361;-80
2024/03/31 05:11:01;;;;;;;11.45;6.82;;;13.30;87.70;;;;;;4977197;28;20038;-79
2024/03/31 05:13:30;;;;;;;10.20;6.50;;;13.30;87.70;;;;;;4976263;28;20085;-78
2024/03/31 05:15:59;;;;;;;9.55;6.53;;;13.20;87.60;;;;;;4976047;28;20045;-79
2024/03/31 05:18:24;;;;;;;9.70;6.57;;;13.20;87.70;;;;;;4976021;28;20077;-79
2024/03/31 05:20:57;;;;;;;9.95;6.80;;;13.20;87.70;;;;;;4976693;28;20051;-79
2024/03/31 05:23:23;;;;;;;9.40;6.93;;;13.20;87.70;;;;;;4975703;28;20027;-79
2024/03/31 05:25:49;;;;;;;9.32;6.82;;;13.10;87.60;;;;;;4976715;28;20518;-79
2024/03/31 05:28:15;;;;;;;11.02;7.57;;;13.30;87.70;;;;;;4959827;28;20027;-80
2024/03/31 05:30:40;;;;;;;9.65;6.88;;;13.20;88.20;;;;;;4976466;28;20026;-79
2024/03/31 05:33:06;;;;;;;9.52;6.95;;;13.20;87.70;;;;;;4975574;28;20081;-78
2024/03/31 05:35:31;;;;;;;10.05;6.88;;;13.30;87.70;;;;;;4977096;28;20029;-79
2024/03/31 05:37:57;;;;;;;10.55;7.68;;;13.30;87.80;;;;;;4959450;28;20483;-79
2024/03/31 05:40:22;;;;;;;10.35;7.20;;;13.30;87.80;;;;;;4975144;28;20432;-79
2024/03/31 05:42:48;;;;;;;10.15;7.13;;;13.20;87.70;;;;;;4975607;28;20090;-80
2024/03/31 05:45:13;;;;;;;9.25;6.30;;;13.30;87.70;;;;;;4975430;28;20034;-80
2024/03/31 05:47:39;;;;;;;9.40;6.80;;;13.20;87.70;;;;;;4976115;28;20022;-80
2024/03/31 05:50:06;;;;;;;13.77;7.63;;;13.20;87.70;;;;;;4974842;28;20026;-80
2024/03/31 05:52:31;;;;;;;10.43;7.68;;;13.20;87.70;;;;;;4976469;28;20061;-80
2024/03/31 05:54:57;;;;;;;9.95;7.10;;;13.30;87.80;;;;;;4976166;28;20492;-80
2024/03/31 05:57:23;;;;;;;10.32;7.50;;;13.20;87.70;;;;;;4974970;28;20484;-79
2024/03/31 05:59:48;;;;;;;9.82;7.10;;;13.30;87.80;;;;;;4975919;28;20480;-79
2024/03/31 06:02:14;;;;;;;9.50;7.05;;;13.20;87.70;;;;;;4974623;28;20454;-79
2024/03/31 06:04:40;;;;;;;10.27;7.60;;;13.30;88.30;;;;;;4990843;28;20026;-82
2024/03/31 06:07:05;;;;;;;9.70;7.20;;;13.30;87.80;;;;;;4975985;28;20049;-81
2024/03/31 06:09:31;;;;;;;10.70;7.43;;;13.30;87.80;;;;;;4973813;28;20031;-77
2024/03/31 06:11:57;;;;;;;9.93;7.35;;;13.30;87.80;;;;;;4973108;28;20034;-80
2024/03/31 06:14:23;;;;;;;10.88;7.53;;;13.20;87.70;;;;;;4974413;28;20035;-81
2024/03/31 06:16:48;;;;;;;11.77;8.38;;;13.30;87.80;;;;;;4975524;28;20570;-85
2024/03/31 06:19:14;;;;;;;10.10;7.28;;;13.20;87.70;;;;;;4972411;28;20034;-80
2024/03/31 06:39:55;;;;;;;10.40;7.72;;;13.10;87.70;;;;;;4955868;29;20043;-81
2024/03/31 06:46:46;;;;;;;11.68;7.68;;;13.20;87.80;;;;;;4997387;28;20038;-81
2024/03/31 06:49:39;;;;;;;10.48;7.40;;;13.20;87.80;;;;;;5013779;28;20042;-80
2024/03/31 06:55:46;;;;;;;11.93;7.90;;;13.30;87.80;;;;;;4978291;28;20065;-81
2024/03/31 07:02:16;;;;;;;11.57;7.80;;;13.20;87.80;;;;;;4975216;28;20053;-80
2024/03/31 07:05:25;;;;;;;9.57;7.18;;;13.20;87.80;;;;;;4958866;28;20102;-82
2024/03/31 07:08:15;;;;;;;;;;;;;;;;;;;;;
2024/03/31 07:10:56;;;;;;;;;;;;;;;;;;;;;
2024/03/31 07:13:43;;;;;;;11.55;7.57;;;13.10;87.70;;;;;;4980060;23;19921;-81
2024/03/31 07:16:16;;;;;;;10.45;7.75;;;13.30;87.80;;;;;;4992043;28;20031;-80
2024/03/31 07:18:41;;;;;;;11.27;8.07;;;13.50;87.90;;;;;;4994166;28;20030;-82
2024/03/31 07:21:25;;;;;;;10.60;7.60;;;13.20;87.80;;;;;;5007993;28;20032;-81
2024/03/31 07:23:51;;;;;;;10.30;7.78;;;13.20;87.80;;;;;;4975305;28;20381;-83
2024/03/31 07:26:28;;;;;;;10.23;7.68;;;13.40;87.90;;;;;;4975358;28;20034;-81
2024/03/31 07:29:28;;;;;;;10.20;7.32;;;13.20;87.80;;;;;;4973199;28;20031;-81
2024/03/31 07:32:14;;;;;;;9.88;7.20;;;13.30;87.90;;;;;;4971698;28;20043;-81
2024/03/31 07:35:06;;;;;;;10.43;7.70;;;13.20;87.80;;;;;;4968340;28;20035;-82
2024/03/31 07:44:53;;;;;;;;;;;;;;;;;;;;;
2024/03/31 07:47:14;;;;;;;10.73;7.55;;;13.20;87.80;;;;;;4966254;28;20035;-81
2024/03/31 07:49:50;;;;;;;11.05;8.02;;;13.20;87.90;;;;;;4978579;28;20513;-81
2024/03/31 07:52:16;;;;;;;10.45;7.20;;;13.20;87.90;;;;;;4976580;28;20055;-81
2024/03/31 07:54:42;;;;;;;10.45;7.97;;;13.30;87.90;;;;;;4976357;28;20049;-82
2024/03/31 07:57:07;;;;;;;10.13;7.38;;;13.20;87.80;;;;;;4976069;28;20034;-81
2024/03/31 07:59:33;;;;;;;10.50;7.97;;;13.20;87.90;;;;;;4970869;28;20069;-85
2024/03/31 08:01:59;;;;;;;10.30;7.70;;;13.20;87.80;;;;;;4974477;28;20530;-82
2024/03/31 08:04:27;;;;;;;10.52;7.95;;;13.20;87.90;;;;;;4980356;28;20034;-84
2024/03/31 08:06:53;;;;;;;10.55;7.85;;;13.20;87.90;;;;;;4976692;28;20380;-83
2024/03/31 08:09:19;;;;;;;9.73;7.60;;;13.30;87.90;;;;;;4979419;28;20093;-82
2024/03/31 08:11:44;;;;;;;10.02;7.80;;;13.30;87.90;;;;;;4977208;28;20133;-83
2024/03/31 08:14:14;;;;;;;10.50;7.80;;;13.30;87.90;;;;;;4980477;28;20637;-83
2024/03/31 08:16:40;;;;;;;11.07;7.88;;;13.20;87.90;;;;;;4978484;28;20023;-81
2024/03/31 08:19:06;;;;;;;10.70;7.63;;;13.20;87.90;;;;;;4975565;28;20023;-81
2024/03/31 08:21:31;;;;;;;11.50;8.27;;;13.20;87.90;;;;;;4975549;28;20085;-83
2024/03/31 08:23:57;;;;;;;12.10;7.78;;;13.30;87.90;;;;;;4977274;28;20034;-84
2024/03/31 08:26:22;;;;;;;10.38;7.50;;;13.20;87.80;;;;;;4976466;28;20023;-81
2024/03/31 08:28:48;;;;;;;10.00;7.63;;;13.20;87.80;;;;;;4974034;28;20110;-82
2024/03/31 08:31:14;;;;;;;11.07;8.35;;;13.20;87.80;;;;;;4973349;28;20112;-81
2024/03/31 08:33:39;;;;;;;11.57;8.43;;;13.30;87.90;;;;;;4974696;28;20373;-83
2024/03/31 08:36:05;;;;;;;10.48;7.72;;;13.30;87.90;;;;;;4975691;28;20038;-81
2024/03/31 08:38:30;;;;;;;11.07;8.23;;;13.30;87.90;;;;;;4976365;28;20030;-83
2024/03/31 08:41:12;;;;;;;12.35;8.88;;;13.30;87.90;;;;;;4974400;28;20054;-81
2024/03/31 08:43:38;;;;;;;;;;;13.30;87.90;;;;;;4976540;28;20050;-81
2024/03/31 08:46:08;;;;;;;10.52;8.27;;;13.20;87.90;;;;;;4974446;28;20113;-82
2024/03/31 08:48:37;;;;;;;11.77;8.45;;;13.30;87.90;;;;;;4974978;28;20035;-85
2024/03/31 08:51:04;;;;;;;10.60;8.23;;;13.30;87.90;;;;;;4975777;28;20034;-81
2024/03/31 08:53:30;;;;;;;10.25;8.10;;;13.30;87.90;;;;;;4975667;28;20038;-81
2024/03/31 08:55:56;;;;;;;9.88;7.88;;;13.20;87.80;;;;;;4974429;28;20122;-82
2024/03/31 08:58:24;;;;;;;10.88;8.50;;;13.30;87.90;;;;;;4976118;28;20058;-82
2024/03/31 09:00:51;;;;;;;11.32;8.13;;;13.30;87.90;;;;;;4973894;28;20031;-83
2024/03/31 09:03:17;;;;;;;10.85;8.43;;;13.30;87.80;;;;;;4974824;28;20019;-83
2024/03/31 09:05:43;;;;;;;10.00;7.97;;;13.30;87.80;;;;;;4975506;28;20027;-84
2024/03/31 09:08:09;;;;;;;11.18;8.27;;;13.30;87.80;;;;;;4974168;28;20134;-83
2024/03/31 09:10:36;;;;;;;11.60;8.27;;;13.30;87.80;;;;;;4973522;28;20019;-82
2024/03/31 09:13:30;;;;;;;10.80;8.15;;;13.30;87.80;;;;;;5145162;23;20038;-81
2024/03/31 09:15:59;;;;;;;10.27;8.13;;;13.30;87.80;;;;;;4998935;28;20080;-80
2024/03/31 09:18:32;;;;;;;10.30;8.32;;;13.30;87.80;;;;;;5016245;28;20022;-82
2024/03/31 09:21:25;;;;;;;11.23;8.20;;;13.30;87.80;;;;;;4998200;28;20038;-80
2024/03/31 09:23:55;;;;;;;11.20;8.45;;;13.40;87.80;;;;;;4996948;28;20037;-81
2024/03/31 09:30:44;;;;;;;10.52;8.00;;;13.30;87.90;;;;;;4917435;29;20028;-82
2024/03/31 09:33:10;;;;;;;10.95;8.20;;;13.30;87.90;;;;;;4915902;29;20130;-79
2024/03/31 09:35:39;;;;;;;11.45;9.00;;;13.30;87.80;;;;;;4934862;29;20660;-79
2024/03/31 09:38:04;;;;;;;10.90;8.50;;;13.30;87.80;;;;;;4918576;29;20036;-79
2024/03/31 09:40:30;;;;;;;11.70;9.35;;;13.40;87.90;;;;;;4918487;29;20148;-79
2024/03/31 09:42:56;;;;;;;11.88;8.57;;;13.30;87.90;;;;;;4935130;29;20048;-82
2024/03/31 09:45:23;;;;;;;11.38;8.45;;;13.30;87.90;;;;;;4919154;29;20072;-82
2024/03/31 09:47:53;;;;;;;12.30;8.70;;;13.30;87.90;;;;;;4919291;29;20043;-81
2024/03/31 09:50:22;;;;;;;11.68;8.48;;;13.30;87.90;;;;;;4918989;29;20028;-78
2024/03/31 09:52:55;;;;;;;11.13;8.20;;;13.30;87.80;;;;;;4933445;29;20035;-78
2024/03/31 09:55:24;;;;;;;12.23;8.90;;;13.40;87.80;;;;;;4927550;29;20536;-81
2024/03/31 09:57:51;;;;;;;10.88;8.38;;;13.40;87.70;;;;;;4931019;29;20028;-81
2024/03/31 10:00:18;;;;;;;12.43;8.88;;;13.40;88.20;;;;;;4918529;29;20059;-85
2024/03/31 10:03:11;;;;;;;21.50;9.52;;;13.40;87.80;;;;;;4935545;29;20099;-79
2024/03/31 10:05:39;;;;;;;17.55;8.93;;;13.40;87.90;;;;;;4941961;28;20034;-80
2024/03/31 10:08:07;;;;;;;19.63;9.05;;;13.40;87.80;;;;;;4996001;28;20693;-81
2024/03/31 10:10:34;;;;;;;15.63;8.75;;;13.50;87.70;;;;;;4979363;28;20567;-80
2024/03/31 10:13:02;;;;;;;14.73;8.52;;;13.50;87.50;;;;;;4997986;28;20265;-79
2024/03/31 10:15:28;;;;;;;15.93;9.18;;;13.50;87.30;;;;;;4982354;28;20214;-81
2024/03/31 10:17:56;;;;;;;17.70;8.95;;;13.60;87.20;;;;;;4977517;28;20054;-82
2024/03/31 10:20:23;;;;;;;16.98;9.77;;;13.60;87.10;;;;;;4997104;28;20026;-82
2024/03/31 10:22:50;;;;;;;17.63;8.80;;;13.70;87.10;;;;;;4979372;28;20554;-83
2024/03/31 10:25:18;;;;;;;17.10;8.75;;;13.70;87.10;;;;;;4981170;28;20061;-82
2024/03/31 10:27:44;;;;;;;18.05;9.40;;;13.70;86.90;;;;;;4982338;28;20475;-82
2024/03/31 10:30:11;;;;;;;16.60;8.95;;;13.80;87.00;;;;;;4980798;28;20038;-83
2024/03/31 10:32:37;;;;;;;16.52;9.02;;;13.80;87.30;;;;;;4980348;28;20124;-82
2024/03/31 10:35:04;;;;;;;17.80;8.70;;;13.90;87.50;;;;;;4978906;28;20034;-84
2024/03/31 10:37:32;;;;;;;13.77;8.40;;;14.00;88.10;;;;;;4979835;28;20043;-81
2024/03/31 10:39:59;;;;;;;18.65;8.95;;;14.10;88.20;;;;;;4961831;28;20030;-83
2024/03/31 10:42:25;;;;;;;14.93;8.50;;;14.20;88.30;;;;;;4994678;28;20868;-84
2024/03/31 10:44:53;;;;;;;14.40;8.80;;;14.30;88.00;;;;;;4982549;28;20026;-81
2024/03/31 10:47:20;;;;;;;15.95;9.18;;;14.40;87.90;;;;;;4981668;28;20101;-81
2024/03/31 10:49:46;;;;;;;17.40;8.55;;;14.50;87.70;;;;;;4979537;28;20053;-82
2024/03/31 10:52:18;;;;;;;14.82;8.05;;;14.60;87.40;;;;;;4996315;28;20113;-79
2024/03/31 10:54:44;;;;;;;14.82;8.10;;;14.70;87.20;;;;;;4979025;28;20030;-81
2024/03/31 10:57:11;;;;;;;15.18;8.27;;;14.60;87.10;;;;;;4976413;28;20038;-80
2024/03/31 10:59:41;;;;;;;14.57;8.38;;;14.80;86.90;;;;;;4972631;28;20449;-81
2024/03/31 11:02:17;;;;;;;20.35;8.73;;;14.90;86.60;;;;;;4976439;28;20026;-80
2024/03/31 11:05:06;;;;;;;13.68;8.00;;;14.90;86.30;;;;;;4975278;28;20026;-80
2024/03/31 11:07:35;;;;;;;19.48;7.60;;;15.00;86.00;;;;;;4993357;28;20028;-81
2024/03/31 11:10:05;;;;;;;14.35;7.43;;;15.10;85.90;;;;;;4976575;28;20468;-80
2024/03/31 11:12:30;;;;;;;15.10;7.78;;;15.10;85.60;;;;;;4960733;28;20081;-80
2024/03/31 11:14:56;;;;;;;18.08;7.97;;;15.00;85.70;;;;;;4992477;28;20018;-80
2024/03/31 11:17:26;;;;;;;20.42;8.48;;;14.90;86.10;;;;;;4974674;28;20026;-80
2024/03/31 11:19:52;;;;;;;15.77;8.07;;;14.90;86.50;;;;;;4992778;28;20034;-80
2024/03/31 11:22:21;;;;;;;14.30;7.43;;;14.80;86.80;;;;;;4994103;28;20039;-79
2024/03/31 11:24:47;;;;;;;14.05;7.80;;;14.70;86.90;;;;;;4992574;28;20027;-81
2024/03/31 11:27:13;;;;;;;14.90;7.50;;;14.70;87.00;;;;;;4974887;28;20023;-80
2024/03/31 11:29:38;;;;;;;15.43;7.93;;;14.70;87.20;;;;;;4974589;28;20113;-81
2024/03/31 11:32:04;;;;;;;14.07;8.10;;;14.70;87.10;;;;;;4991546;28;20118;-80
2024/03/31 11:34:31;;;;;;;13.60;7.60;;;14.70;87.10;;;;;;4973261;28;20112;-81
2024/03/31 11:36:57;;;;;;;13.68;7.50;;;14.70;87.20;;;;;;4991438;28;20054;-81
2024/03/31 11:39:22;;;;;;;17.88;7.85;;;14.60;87.20;;;;;;4974838;28;20030;-80
2024/03/31 11:41:48;;;;;;;18.40;7.63;;;14.60;87.10;;;;;;4975567;28;20447;-80
2024/03/31 11:44:15;;;;;;;16.55;8.45;;;14.80;87.10;;;;;;4990909;28;20037;-80
2024/03/31 11:46:40;;;;;;;16.55;8.60;;;14.80;86.70;;;;;;4974743;28;20061;-80
2024/03/31 11:49:06;;;;;;;17.88;8.43;;;14.80;86.50;;;;;;4974688;28;20038;-81
2024/03/31 11:51:35;;;;;;;17.35;8.32;;;14.80;86.30;;;;;;4991993;28;20030;-80
2024/03/31 11:54:01;;;;;;;17.17;7.38;;;14.80;86.30;;;;;;4973673;28;20026;-80
2024/03/31 11:56:27;;;;;;;15.75;7.43;;;14.80;86.20;;;;;;4990974;28;20034;-79
2024/03/31 11:58:53;;;;;;;15.75;7.28;;;14.80;86.30;;;;;;4992039;28;20675;-81
2024/03/31 12:01:21;;;;;;;16.52;7.47;;;14.60;86.20;;;;;;4973080;28;20042;-80
2024/03/31 12:03:57;;;;;;;15.55;7.25;;;14.80;86.30;;;;;;4972895;28;20502;-80
2024/03/31 12:06:24;;;;;;;17.20;7.85;;;14.70;86.20;;;;;;4990437;28;20132;-80
2024/03/31 12:08:50;;;;;;;14.52;7.57;;;14.70;86.20;;;;;;4990676;28;20061;-81
2024/03/31 12:11:22;;;;;;;14.95;7.30;;;14.70;86.20;;;;;;4990131;28;20046;-79
2024/03/31 12:13:52;;;;;;;13.05;6.78;;;14.80;86.20;;;;;;4972862;28;20038;-79
2024/03/31 12:16:18;;;;;;;13.18;6.80;;;14.70;86.10;;;;;;4991192;28;20399;-80
2024/03/31 12:18:44;;;;;;;15.25;7.10;;;14.70;86.20;;;;;;4990533;28;20026;-79
2024/03/31 12:21:10;;;;;;;16.95;7.78;;;14.60;86.20;;;;;;4990829;28;20022;-80
2024/03/31 12:23:36;;;;;;;13.43;6.63;;;14.60;86.30;;;;;;4991929;28;20029;-79
2024/03/31 12:26:03;;;;;;;13.98;6.95;;;14.50;86.20;;;;;;4992723;28;20037;-79
2024/03/31 12:28:29;;;;;;;12.38;6.55;;;14.60;86.30;;;;;;4990411;28;20053;-79
2024/03/31 12:30:56;;;;;;;11.98;6.97;;;14.50;86.30;;;;;;4995687;28;20399;-80
2024/03/31 12:33:22;;;;;;;14.05;6.90;;;14.60;86.30;;;;;;4997437;28;20110;-79
2024/03/31 12:35:47;;;;;;;12.82;7.07;;;14.60;86.40;;;;;;4978347;28;20442;-80
2024/03/31 12:38:14;;;;;;;9.68;6.63;;;14.60;86.40;;;;;;4997178;28;20026;-76
2024/03/31 12:40:40;;;;;;;10.15;6.25;;;14.60;86.50;;;;;;4996203;28;20039;-82
2024/03/31 12:43:06;;;;;;;11.80;6.22;;;14.60;86.60;;;;;;4976759;28;20466;-79
2024/03/31 12:45:31;;;;;;;10.93;6.63;;;14.60;86.60;;;;;;4998643;28;20022;-80
2024/03/31 12:48:02;;;;;;;13.13;7.00;;;14.60;86.60;;;;;;4978553;28;20397;-80
2024/03/31 12:50:30;;;;;;;13.43;7.00;;;14.60;86.60;;;;;;4982606;28;20557;-80
2024/03/31 12:53:07;;;;;;;11.85;6.53;;;14.60;86.50;;;;;;5000512;28;20034;-80
2024/03/31 12:55:37;;;;;;;12.32;6.68;;;14.60;86.60;;;;;;5000593;28;20027;-80
2024/03/31 12:58:04;;;;;;;13.27;6.45;;;14.50;86.50;;;;;;4998017;28;20033;-80
2024/03/31 13:00:30;;;;;;;10.98;6.50;;;14.60;86.60;;;;;;4998624;28;20038;-80
2024/03/31 13:02:56;;;;;;;10.80;6.00;;;14.50;86.60;;;;;;5000479;28;20087;-81
2024/03/31 13:05:24;;;;;;;12.05;6.30;;;14.40;86.60;;;;;;5001008;28;20053;-79
2024/03/31 13:07:53;;;;;;;13.35;6.55;;;14.50;86.70;;;;;;4999334;28;20025;-80
2024/03/31 13:10:19;;;;;;;12.52;6.32;;;14.50;86.80;;;;;;4981079;28;20034;-79
2024/03/31 13:12:47;;;;;;;11.32;6.85;;;14.30;86.70;;;;;;4996763;28;20038;-79
2024/03/31 13:15:14;;;;;;;10.40;5.75;;;14.50;86.90;;;;;;4981575;28;20030;-80
2024/03/31 13:17:40;;;;;;;10.40;5.75;;;14.50;87.00;;;;;;4996602;28;20022;-81
2024/03/31 13:20:07;;;;;;;10.50;6.03;;;14.50;87.00;;;;;;4997402;28;20443;-81
2024/03/31 13:22:37;;;;;;;9.32;5.53;;;14.40;87.00;;;;;;4998200;28;20033;-79
2024/03/31 13:25:04;;;;;;;11.75;5.97;;;14.40;87.60;;;;;;4999014;28;20030;-80
2024/03/31 13:27:29;;;;;;;11.23;6.13;;;14.40;87.10;;;;;;4998454;28;20026;-80
2024/03/31 13:29:57;;;;;;;11.32;6.15;;;14.40;87.20;;;;;;4999106;28;20391;-80